Spencer, MA (01562)

6:42 AM EDT on July 29, 2016 (GMT -0400)
Temple Valley | | Change Station

Elev 881 ft 42.24 °N, 71.99 °W | Updated 4 seconds ago

Light Rain
Light Rain
70.5 °F
Feels Like 70.5 °F
N
0.0
Wind Variable Wind from ESE
Gusts 0.0 mph

Today
High -- | Low -- °F
--% Chance of Precip.
Yesterday
High -- | Low -- °F
Precip. -- in
Pressure 29.88 in
Visibility 10.0 miles
Clouds Overcast 11000 ft
Dew Point 68 °F
Humidity 92%
Rainfall 0.33 in
Snow Depth Not available.
5:38 AM 8:09 PM
Waning Crescent, 23% visible
METAR KORH 290954Z AUTO 29008KT 10SM -RA OVC110 21/18 A2990 RMK AO2 SLP119 P0004 T02060183
Pressure 29.88 in
Visibility 10.0 miles
Clouds Overcast 11000 ft
Dew Point 68 °F
Humidity 92%
Rainfall 0.33 in
Snow Depth Not available.
5:38 AM 8:09 PM
Waning Crescent, 23% visible
METAR KORH 290954Z AUTO 29008KT 10SM -RA OVC110 21/18 A2990 RMK AO2 SLP119 P0004 T02060183

10-Day Weather Forecast

Almanac

Astronomy

Jul. 29, 2016 Rise Set
Actual Time
Civil Twilight
Nautical Twilight
Astronomical Twilight
Moon
Length of Visible Light
Length of Day
Tomorrow will be .
, % of the Moon is Illuminated

Today's Extremes

State Highs State Lows

Community

WunderPhotos

Upload Photos

1,928,311 photos uploaded!

WunderBlog® & News

Nearby

Air Quality

  Air Quality AQ Index Pollutant
Not available.

Snow Depth

Station Depth Elevation

Earthquake Activity

City Distance Mag. Time & Date
Minimum magnitude displayed is 2.5.

Coastal Water Temperatures

Place Temperature

Stations

Nearby Weather Stations

Station Location Temp. Windchill Dew Point Humidity Wind Precip. Elev Updated Type
                   

Watches & Warnings

There are currently no watches in effect.